sensor_id;sensor_type;location;lat;lon;timestamp;P1;P2;P0
78408;PMS5003;67697;50.750;-3.270;2023-04-03T00:01:34;31;25;
78408;PMS5003;67697;50.750;-3.270;2023-04-03T00:03:59;26;23;
78408;PMS5003;67697;50.750;-3.270;2023-04-03T00:06:25;22;19;
78408;PMS5003;67697;50.750;-3.270;2023-04-03T00:08:50;26;22;
78408;PMS5003;67697;50.750;-3.270;2023-04-03T00:11:16;22;19;
78408;PMS5003;67697;50.750;-3.270;2023-04-03T00:13:41;27;20;
78408;PMS5003;67697;50.750;-3.270;2023-04-03T00:16:07;20;20;
78408;PMS5003;67697;50.750;-3.270;2023-04-03T00:18:32;22;16;
78408;PMS5003;67697;50.750;-3.270;2023-04-03T00:20:58;23;22;
78408;PMS5003;67697;50.750;-3.270;2023-04-03T00:23:23;23;22;
78408;PMS5003;67697;50.750;-3.270;2023-04-03T00:25:49;26;22;
78408;PMS5003;67697;50.750;-3.270;2023-04-03T00:28:14;24;22;
78408;PMS5003;67697;50.750;-3.270;2023-04-03T00:30:40;21;21;
78408;PMS5003;67697;50.750;-3.270;2023-04-03T00:33:05;20;17;
78408;PMS5003;67697;50.750;-3.270;2023-04-03T00:35:31;18;16;
78408;PMS5003;67697;50.750;-3.270;2023-04-03T00:37:57;23;22;
78408;PMS5003;67697;50.750;-3.270;2023-04-03T00:40:23;21;18;
78408;PMS5003;67697;50.750;-3.270;2023-04-03T00:42:48;27;24;
78408;PMS5003;67697;50.750;-3.270;2023-04-03T00:45:24;22;21;
78408;PMS5003;67697;50.750;-3.270;2023-04-03T00:47:38;18;17;
78408;PMS5003;67697;50.750;-3.270;2023-04-03T00:50:04;21;21;
78408;PMS5003;67697;50.750;-3.270;2023-04-03T00:52:29;23;22;
78408;PMS5003;67697;50.750;-3.270;2023-04-03T00:54:56;20;17;
78408;PMS5003;67697;50.750;-3.270;2023-04-03T00:57:20;23;20;
78408;PMS5003;67697;50.750;-3.270;2023-04-03T00:59:46;27;24;
78408;PMS5003;67697;50.750;-3.270;2023-04-03T01:02:11;26;20;
78408;PMS5003;67697;50.750;-3.270;2023-04-03T01:04:37;32;30;
78408;PMS5003;67697;50.750;-3.270;2023-04-03T01:07:03;30;22;
78408;PMS5003;67697;50.750;-3.270;2023-04-03T01:09:27;26;23;
78408;PMS5003;67697;50.750;-3.270;2023-04-03T01:11:53;19;19;
78408;PMS5003;67697;50.750;-3.270;2023-04-03T01:14:18;23;23;
78408;PMS5003;67697;50.750;-3.270;2023-04-03T01:19:10;27;23;
78408;PMS5003;67697;50.750;-3.270;2023-04-03T01:21:40;23;21;
78408;PMS5003;67697;50.750;-3.270;2023-04-03T01:24:03;26;23;
78408;PMS5003;67697;50.750;-3.270;2023-04-03T01:26:25;22;18;
78408;PMS5003;67697;50.750;-3.270;2023-04-03T01:28:50;23;21;
78408;PMS5003;67697;50.750;-3.270;2023-04-03T01:31:18;21;21;
78408;PMS5003;67697;50.750;-3.270;2023-04-03T01:33:41;22;17;
78408;PMS5003;67697;50.750;-3.270;2023-04-03T01:36:07;18;18;
78408;PMS5003;67697;50.750;-3.270;2023-04-03T01:38:32;22;19;
78408;PMS5003;67697;50.750;-3.270;2023-04-03T01:40:58;19;17;
78408;PMS5003;67697;50.750;-3.270;2023-04-03T01:43:24;19;19;
78408;PMS5003;67697;50.750;-3.270;2023-04-03T01:45:49;21;19;
78408;PMS5003;67697;50.750;-3.270;2023-04-03T01:48:15;19;15;
78408;PMS5003;67697;50.750;-3.270;2023-04-03T01:50:40;15;15;
78408;PMS5003;67697;50.750;-3.270;2023-04-03T01:53:06;19;14;
78408;PMS5003;67697;50.750;-3.270;2023-04-03T01:55:32;14;13;
78408;PMS5003;67697;50.750;-3.270;2023-04-03T01:57:58;17;13;
78408;PMS5003;67697;50.750;-3.270;2023-04-03T02:00:23;17;12;
78408;PMS5003;67697;50.750;-3.270;2023-04-03T02:02:49;16;12;
78408;PMS5003;67697;50.750;-3.270;2023-04-03T02:05:14;18;17;
78408;PMS5003;67697;50.750;-3.270;2023-04-03T02:07:40;13;12;
78408;PMS5003;67697;50.750;-3.270;2023-04-03T02:10:06;17;14;
78408;PMS5003;67697;50.750;-3.270;2023-04-03T02:12:31;20;14;
78408;PMS5003;67697;50.750;-3.270;2023-04-03T02:14:57;14;12;
78408;PMS5003;67697;50.750;-3.270;2023-04-03T02:17:23;16;13;
78408;PMS5003;67697;50.750;-3.270;2023-04-03T02:19:49;12;12;
78408;PMS5003;67697;50.750;-3.270;2023-04-03T02:22:15;14;13;
78408;PMS5003;67697;50.750;-3.270;2023-04-03T02:24:40;16;14;
78408;PMS5003;67697;50.750;-3.270;2023-04-03T02:27:06;20;14;
78408;PMS5003;67697;50.750;-3.270;2023-04-03T02:29:32;16;14;
78408;PMS5003;67697;50.750;-3.270;2023-04-03T02:31:57;10;9;
78408;PMS5003;67697;50.750;-3.270;2023-04-03T02:34:23;17;16;
78408;PMS5003;67697;50.750;-3.270;2023-04-03T02:36:49;16;14;
78408;PMS5003;67697;50.750;-3.270;2023-04-03T02:39:15;13;10;
78408;PMS5003;67697;50.750;-3.270;2023-04-03T02:41:40;18;14;
78408;PMS5003;67697;50.750;-3.270;2023-04-03T02:44:06;20;16;
78408;PMS5003;67697;50.750;-3.270;2023-04-03T02:46:31;16;16;
78408;PMS5003;67697;50.750;-3.270;2023-04-03T02:48:57;14;12;
78408;PMS5003;67697;50.750;-3.270;2023-04-03T02:51:23;16;16;
78408;PMS5003;67697;50.750;-3.270;2023-04-03T02:53:48;14;13;
78408;PMS5003;67697;50.750;-3.270;2023-04-03T02:56:14;18;16;
78408;PMS5003;67697;50.750;-3.270;2023-04-03T02:58:40;16;13;
78408;PMS5003;67697;50.750;-3.270;2023-04-03T03:01:05;16;12;
78408;PMS5003;67697;50.750;-3.270;2023-04-03T03:03:31;16;14;
78408;PMS5003;67697;50.750;-3.270;2023-04-03T03:06:01;17;14;
78408;PMS5003;67697;50.750;-3.270;2023-04-03T03:08:22;16;14;
78408;PMS5003;67697;50.750;-3.270;2023-04-03T03:10:48;17;14;
78408;PMS5003;67697;50.750;-3.270;2023-04-03T03:13:13;16;13;
78408;PMS5003;67697;50.750;-3.270;2023-04-03T03:15:39;16;16;
78408;PMS5003;67697;50.750;-3.270;2023-04-03T03:18:05;9;9;
78408;PMS5003;67697;50.750;-3.270;2023-04-03T03:20:30;14;13;
78408;PMS5003;67697;50.750;-3.270;2023-04-03T03:22:56;15;11;
78408;PMS5003;67697;50.750;-3.270;2023-04-03T03:25:22;11;11;
78408;PMS5003;67697;50.750;-3.270;2023-04-03T03:27:47;10;10;
78408;PMS5003;67697;50.750;-3.270;2023-04-03T03:30:13;17;14;
78408;PMS5003;67697;50.750;-3.270;2023-04-03T03:32:38;11;9;
78408;PMS5003;67697;50.750;-3.270;2023-04-03T03:35:04;15;13;
78408;PMS5003;67697;50.750;-3.270;2023-04-03T03:37:29;11;11;
78408;PMS5003;67697;50.750;-3.270;2023-04-03T03:39:55;15;11;
78408;PMS5003;67697;50.750;-3.270;2023-04-03T03:42:20;15;13;
78408;PMS5003;67697;50.750;-3.270;2023-04-03T03:44:46;15;15;
78408;PMS5003;67697;50.750;-3.270;2023-04-03T03:47:12;13;11;
78408;PMS5003;67697;50.750;-3.270;2023-04-03T03:49:38;18;17;
78408;PMS5003;67697;50.750;-3.270;2023-04-03T03:52:03;19;15;
78408;PMS5003;67697;50.750;-3.270;2023-04-03T03:54:29;14;14;
78408;PMS5003;67697;50.750;-3.270;2023-04-03T03:56:54;17;15;
78408;PMS5003;67697;50.750;-3.270;2023-04-03T03:59:20;13;10;
78408;PMS5003;67697;50.750;-3.270;2023-04-03T04:01:45;14;14;
78408;PMS5003;67697;50.750;-3.270;2023-04-03T04:04:11;15;15;
78408;PMS5003;67697;50.750;-3.270;2023-04-03T04:06:37;15;13;
78408;PMS5003;67697;50.750;-3.270;2023-04-03T04:09:03;14;11;
78408;PMS5003;67697;50.750;-3.270;2023-04-03T04:11:28;10;9;
78408;PMS5003;67697;50.750;-3.270;2023-04-03T04:13:54;14;13;
78408;PMS5003;67697;50.750;-3.270;2023-04-03T04:16:20;14;13;
78408;PMS5003;67697;50.750;-3.270;2023-04-03T04:18:46;12;10;
78408;PMS5003;67697;50.750;-3.270;2023-04-03T04:21:12;14;9;
78408;PMS5003;67697;50.750;-3.270;2023-04-03T04:23:37;10;9;
78408;PMS5003;67697;50.750;-3.270;2023-04-03T04:26:03;12;9;
78408;PMS5003;67697;50.750;-3.270;2023-04-03T04:28:28;6;6;
78408;PMS5003;67697;50.750;-3.270;2023-04-03T04:30:54;9;8;
78408;PMS5003;67697;50.750;-3.270;2023-04-03T04:33:19;9;9;
78408;PMS5003;67697;50.750;-3.270;2023-04-03T04:35:47;12;10;
78408;PMS5003;67697;50.750;-3.270;2023-04-03T04:38:11;12;10;
78408;PMS5003;67697;50.750;-3.270;2023-04-03T04:40:37;9;8;
78408;PMS5003;67697;50.750;-3.270;2023-04-03T04:43:02;9;6;
78408;PMS5003;67697;50.750;-3.270;2023-04-03T04:45:28;9;8;
78408;PMS5003;67697;50.750;-3.270;2023-04-03T04:47:54;13;9;
78408;PMS5003;67697;50.750;-3.270;2023-04-03T04:50:19;13;10;
78408;PMS5003;67697;50.750;-3.270;2023-04-03T04:52:45;9;8;
78408;PMS5003;67697;50.750;-3.270;2023-04-03T04:55:10;8;8;
78408;PMS5003;67697;50.750;-3.270;2023-04-03T04:57:36;10;8;
78408;PMS5003;67697;50.750;-3.270;2023-04-03T05:00:02;15;10;
78408;PMS5003;67697;50.750;-3.270;2023-04-03T05:02:28;12;9;
78408;PMS5003;67697;50.750;-3.270;2023-04-03T05:04:53;12;8;
78408;PMS5003;67697;50.750;-3.270;2023-04-03T05:07:18;9;9;
78408;PMS5003;67697;50.750;-3.270;2023-04-03T05:09:44;13;10;
78408;PMS5003;67697;50.750;-3.270;2023-04-03T05:12:09;10;8;
78408;PMS5003;67697;50.750;-3.270;2023-04-03T05:14:35;8;8;
78408;PMS5003;67697;50.750;-3.270;2023-04-03T05:17:00;10;10;
78408;PMS5003;67697;50.750;-3.270;2023-04-03T05:19:26;9;9;
78408;PMS5003;67697;50.750;-3.270;2023-04-03T05:21:52;8;5;
78408;PMS5003;67697;50.750;-3.270;2023-04-03T05:24:18;13;11;
78408;PMS5003;67697;50.750;-3.270;2023-04-03T05:26:43;8;8;
78408;PMS5003;67697;50.750;-3.270;2023-04-03T05:29:08;9;8;
78408;PMS5003;67697;50.750;-3.270;2023-04-03T05:31:34;9;8;
78408;PMS5003;67697;50.750;-3.270;2023-04-03T05:34:00;12;9;
78408;PMS5003;67697;50.750;-3.270;2023-04-03T05:36:25;10;9;
78408;PMS5003;67697;50.750;-3.270;2023-04-03T05:38:51;9;9;
78408;PMS5003;67697;50.750;-3.270;2023-04-03T05:41:16;9;9;
78408;PMS5003;67697;50.750;-3.270;2023-04-03T05:43:42;10;10;
78408;PMS5003;67697;50.750;-3.270;2023-04-03T05:46:09;9;9;
78408;PMS5003;67697;50.750;-3.270;2023-04-03T05:48:33;13;10;
78408;PMS5003;67697;50.750;-3.270;2023-04-03T05:50:58;15;12;
78408;PMS5003;67697;50.750;-3.270;2023-04-03T05:53:25;15;13;
78408;PMS5003;67697;50.750;-3.270;2023-04-03T05:55:49;9;8;
78408;PMS5003;67697;50.750;-3.270;2023-04-03T05:58:15;9;8;
78408;PMS5003;67697;50.750;-3.270;2023-04-03T06:00:41;12;10;
78408;PMS5003;67697;50.750;-3.270;2023-04-03T06:03:06;13;9;
78408;PMS5003;67697;50.750;-3.270;2023-04-03T06:05:32;13;12;
78408;PMS5003;67697;50.750;-3.270;2023-04-03T06:07:58;10;9;
78408;PMS5003;67697;50.750;-3.270;2023-04-03T06:10:23;8;8;
78408;PMS5003;67697;50.750;-3.270;2023-04-03T06:12:49;13;12;
78408;PMS5003;67697;50.750;-3.270;2023-04-03T06:15:15;16;13;
78408;PMS5003;67697;50.750;-3.270;2023-04-03T06:17:40;13;10;
78408;PMS5003;67697;50.750;-3.270;2023-04-03T06:20:06;12;10;
78408;PMS5003;67697;50.750;-3.270;2023-04-03T06:22:31;12;10;
78408;PMS5003;67697;50.750;-3.270;2023-04-03T06:24:56;12;10;
78408;PMS5003;67697;50.750;-3.270;2023-04-03T06:27:22;13;10;
78408;PMS5003;67697;50.750;-3.270;2023-04-03T06:29:48;9;8;
78408;PMS5003;67697;50.750;-3.270;2023-04-03T06:32:14;13;9;
78408;PMS5003;67697;50.750;-3.270;2023-04-03T06:34:40;13;10;
78408;PMS5003;67697;50.750;-3.270;2023-04-03T06:37:05;10;9;
78408;PMS5003;67697;50.750;-3.270;2023-04-03T06:39:32;9;5;
78408;PMS5003;67697;50.750;-3.270;2023-04-03T06:41:56;15;9;
78408;PMS5003;67697;50.750;-3.270;2023-04-03T06:44:21;6;6;
78408;PMS5003;67697;50.750;-3.270;2023-04-03T06:46:47;9;5;
78408;PMS5003;67697;50.750;-3.270;2023-04-03T06:49:13;8;6;
78408;PMS5003;67697;50.750;-3.270;2023-04-03T06:51:39;11;8;
78408;PMS5003;67697;50.750;-3.270;2023-04-03T06:54:05;15;6;
78408;PMS5003;67697;50.750;-3.270;2023-04-03T06:56:29;9;8;
78408;PMS5003;67697;50.750;-3.270;2023-04-03T06:58:55;8;8;
78408;PMS5003;67697;50.750;-3.270;2023-04-03T07:01:20;10;9;
78408;PMS5003;67697;50.750;-3.270;2023-04-03T07:03:46;5;5;
78408;PMS5003;67697;50.750;-3.270;2023-04-03T07:06:11;6;5;
78408;PMS5003;67697;50.750;-3.270;2023-04-03T07:08:36;8;6;
78408;PMS5003;67697;50.750;-3.270;2023-04-03T07:11:01;6;6;
78408;PMS5003;67697;50.750;-3.270;2023-04-03T07:13:27;10;6;
78408;PMS5003;67697;50.750;-3.270;2023-04-03T07:15:53;6;5;
78408;PMS5003;67697;50.750;-3.270;2023-04-03T07:18:19;10;9;
78408;PMS5003;67697;50.750;-3.270;2023-04-03T07:20:45;6;6;
78408;PMS5003;67697;50.750;-3.270;2023-04-03T07:23:10;8;6;
78408;PMS5003;67697;50.750;-3.270;2023-04-03T07:25:36;6;6;
78408;PMS5003;67697;50.750;-3.270;2023-04-03T07:28:02;5;5;
78408;PMS5003;67697;50.750;-3.270;2023-04-03T07:30:27;6;5;
78408;PMS5003;67697;50.750;-3.270;2023-04-03T07:32:53;9;6;
78408;PMS5003;67697;50.750;-3.270;2023-04-03T07:35:19;5;5;
78408;PMS5003;67697;50.750;-3.270;2023-04-03T07:37:45;6;6;
78408;PMS5003;67697;50.750;-3.270;2023-04-03T07:40:10;6;5;
78408;PMS5003;67697;50.750;-3.270;2023-04-03T07:42:36;9;6;
78408;PMS5003;67697;50.750;-3.270;2023-04-03T07:45:02;10;6;
78408;PMS5003;67697;50.750;-3.270;2023-04-03T07:47:28;9;5;
78408;PMS5003;67697;50.750;-3.270;2023-04-03T07:49:54;3;3;
78408;PMS5003;67697;50.750;-3.270;2023-04-03T07:52:19;4;4;
78408;PMS5003;67697;50.750;-3.270;2023-04-03T07:54:45;7;6;
78408;PMS5003;67697;50.750;-3.270;2023-04-03T07:57:11;7;6;
78408;PMS5003;67697;50.750;-3.270;2023-04-03T07:59:37;7;3;
78408;PMS5003;67697;50.750;-3.270;2023-04-03T08:02:02;8;6;
78408;PMS5003;67697;50.750;-3.270;2023-04-03T08:04:28;6;5;
78408;PMS5003;67697;50.750;-3.270;2023-04-03T08:06:54;6;6;
78408;PMS5003;67697;50.750;-3.270;2023-04-03T08:09:19;7;3;
78408;PMS5003;67697;50.750;-3.270;2023-04-03T08:11:45;7;5;
78408;PMS5003;67697;50.750;-3.270;2023-04-03T08:14:11;7;6;
78408;PMS5003;67697;50.750;-3.270;2023-04-03T08:16:36;7;6;
78408;PMS5003;67697;50.750;-3.270;2023-04-03T08:19:02;17;13;
78408;PMS5003;67697;50.750;-3.270;2023-04-03T08:21:28;5;5;
78408;PMS5003;67697;50.750;-3.270;2023-04-03T08:23:53;7;5;
78408;PMS5003;67697;50.750;-3.270;2023-04-03T08:26:20;6;5;
78408;PMS5003;67697;50.750;-3.270;2023-04-03T08:28:45;10;7;
78408;PMS5003;67697;50.750;-3.270;2023-04-03T08:31:12;7;7;
78408;PMS5003;67697;50.750;-3.270;2023-04-03T08:33:36;9;7;
78408;PMS5003;67697;50.750;-3.270;2023-04-03T08:36:03;6;6;
78408;PMS5003;67697;50.750;-3.270;2023-04-03T08:38:27;7;6;
78408;PMS5003;67697;50.750;-3.270;2023-04-03T08:41:00;5;5;
78408;PMS5003;67697;50.750;-3.270;2023-04-03T08:43:24;6;5;
78408;PMS5003;67697;50.750;-3.270;2023-04-03T08:45:45;9;5;
78408;PMS5003;67697;50.750;-3.270;2023-04-03T08:48:12;6;6;
78408;PMS5003;67697;50.750;-3.270;2023-04-03T08:50:37;6;6;
78408;PMS5003;67697;50.750;-3.270;2023-04-03T08:53:02;8;8;
78408;PMS5003;67697;50.750;-3.270;2023-04-03T08:55:29;7;7;
78408;PMS5003;67697;50.750;-3.270;2023-04-03T08:57:57;8;6;
78408;PMS5003;67697;50.750;-3.270;2023-04-03T09:00:20;7;6;
78408;PMS5003;67697;50.750;-3.270;2023-04-03T09:02:46;9;9;
78408;PMS5003;67697;50.750;-3.270;2023-04-03T09:05:11;10;9;
78408;PMS5003;67697;50.750;-3.270;2023-04-03T09:07:38;7;5;
78408;PMS5003;67697;50.750;-3.270;2023-04-03T09:10:02;6;6;
78408;PMS5003;67697;50.750;-3.270;2023-04-03T09:12:32;10;6;
78408;PMS5003;67697;50.750;-3.270;2023-04-03T09:14:57;8;6;
78408;PMS5003;67697;50.750;-3.270;2023-04-03T09:17:21;12;8;
78408;PMS5003;67697;50.750;-3.270;2023-04-03T09:19:47;6;5;
78408;PMS5003;67697;50.750;-3.270;2023-04-03T09:22:13;6;6;
78408;PMS5003;67697;50.750;-3.270;2023-04-03T09:24:37;8;5;
78408;PMS5003;67697;50.750;-3.270;2023-04-03T09:27:03;3;3;
78408;PMS5003;67697;50.750;-3.270;2023-04-03T09:29:27;5;5;
78408;PMS5003;67697;50.750;-3.270;2023-04-03T09:31:55;6;5;
78408;PMS5003;67697;50.750;-3.270;2023-04-03T09:34:20;3;3;
78408;PMS5003;67697;50.750;-3.270;2023-04-03T09:36:45;10;6;
78408;PMS5003;67697;50.750;-3.270;2023-04-03T09:39:11;4;4;
78408;PMS5003;67697;50.750;-3.270;2023-04-03T09:41:36;12;9;
78408;PMS5003;67697;50.750;-3.270;2023-04-03T09:44:02;7;6;
78408;PMS5003;67697;50.750;-3.270;2023-04-03T09:46:29;8;7;
78408;PMS5003;67697;50.750;-3.270;2023-04-03T09:48:55;7;7;
78408;PMS5003;67697;50.750;-3.270;2023-04-03T09:51:19;6;6;
78408;PMS5003;67697;50.750;-3.270;2023-04-03T09:53:44;8;8;
78408;PMS5003;67697;50.750;-3.270;2023-04-03T09:58:37;11;8;
78408;PMS5003;67697;50.750;-3.270;2023-04-03T10:01:02;9;9;
78408;PMS5003;67697;50.750;-3.270;2023-04-03T10:03:29;11;11;
78408;PMS5003;67697;50.750;-3.270;2023-04-03T10:05:53;12;9;
78408;PMS5003;67697;50.750;-3.270;2023-04-03T10:08:20;12;12;
78408;PMS5003;67697;50.750;-3.270;2023-04-03T10:10:44;17;14;
78408;PMS5003;67697;50.750;-3.270;2023-04-03T10:13:10;9;9;
78408;PMS5003;67697;50.750;-3.270;2023-04-03T10:15:36;9;8;
78408;PMS5003;67697;50.750;-3.270;2023-04-03T10:18:00;9;8;
78408;PMS5003;67697;50.750;-3.270;2023-04-03T10:20:27;11;11;
78408;PMS5003;67697;50.750;-3.270;2023-04-03T10:22:55;9;9;
78408;PMS5003;67697;50.750;-3.270;2023-04-03T10:25:17;12;12;
78408;PMS5003;67697;50.750;-3.270;2023-04-03T10:27:46;12;12;
78408;PMS5003;67697;50.750;-3.270;2023-04-03T10:30:14;12;12;
78408;PMS5003;67697;50.750;-3.270;2023-04-03T10:35:01;12;10;
78408;PMS5003;67697;50.750;-3.270;2023-04-03T10:37:26;13;10;
78408;PMS5003;67697;50.750;-3.270;2023-04-03T10:39:52;16;13;
78408;PMS5003;67697;50.750;-3.270;2023-04-03T10:42:18;12;12;
78408;PMS5003;67697;50.750;-3.270;2023-04-03T10:44:48;11;11;
78408;PMS5003;67697;50.750;-3.270;2023-04-03T10:47:09;9;8;
78408;PMS5003;67697;50.750;-3.270;2023-04-03T10:49:37;12;12;
78408;PMS5003;67697;50.750;-3.270;2023-04-03T10:52:01;11;11;
78408;PMS5003;67697;50.750;-3.270;2023-04-03T10:54:26;13;13;
78408;PMS5003;67697;50.750;-3.270;2023-04-03T10:56:52;14;13;
78408;PMS5003;67697;50.750;-3.270;2023-04-03T10:59:22;13;12;
78408;PMS5003;67697;50.750;-3.270;2023-04-03T11:01:44;13;12;
78408;PMS5003;67697;50.750;-3.270;2023-04-03T11:04:08;15;10;
78408;PMS5003;67697;50.750;-3.270;2023-04-03T11:06:35;13;12;
78408;PMS5003;67697;50.750;-3.270;2023-04-03T11:09:00;14;13;
78408;PMS5003;67697;50.750;-3.270;2023-04-03T11:11:25;9;9;
78408;PMS5003;67697;50.750;-3.270;2023-04-03T11:13:52;13;12;
78408;PMS5003;67697;50.750;-3.270;2023-04-03T11:16:18;9;9;
78408;PMS5003;67697;50.750;-3.270;2023-04-03T11:18:43;9;9;
78408;PMS5003;67697;50.750;-3.270;2023-04-03T11:21:09;14;13;
78408;PMS5003;67697;50.750;-3.270;2023-04-03T11:23:34;13;12;
78408;PMS5003;67697;50.750;-3.270;2023-04-03T11:26:01;16;11;
78408;PMS5003;67697;50.750;-3.270;2023-04-03T11:28:25;13;10;
78408;PMS5003;67697;50.750;-3.270;2023-04-03T11:30:52;14;11;
78408;PMS5003;67697;50.750;-3.270;2023-04-03T11:33:21;15;13;
78408;PMS5003;67697;50.750;-3.270;2023-04-03T11:35:43;14;14;
78408;PMS5003;67697;50.750;-3.270;2023-04-03T11:38:13;15;14;
78408;PMS5003;67697;50.750;-3.270;2023-04-03T11:40:33;16;14;
78408;PMS5003;67697;50.750;-3.270;2023-04-03T11:43:05;17;15;
78408;PMS5003;67697;50.750;-3.270;2023-04-03T11:45:26;13;13;
78408;PMS5003;67697;50.750;-3.270;2023-04-03T11:47:50;16;15;
78408;PMS5003;67697;50.750;-3.270;2023-04-03T11:59:57;14;12;
78408;PMS5003;67697;50.750;-3.270;2023-04-03T12:07:14;17;17;
78408;PMS5003;67697;50.750;-3.270;2023-04-03T12:14:31;18;17;
78408;PMS5003;67697;50.750;-3.270;2023-04-03T12:16:56;20;15;
78408;PMS5003;67697;50.750;-3.270;2023-04-03T12:19:32;18;16;
78408;PMS5003;67697;50.750;-3.270;2023-04-03T12:26:40;19;19;
78408;PMS5003;67697;50.750;-3.270;2023-04-03T12:29:09;23;21;
78408;PMS5003;67697;50.750;-3.270;2023-04-03T12:31:32;21;18;
78408;PMS5003;67697;50.750;-3.270;2023-04-03T12:34:01;23;23;
78408;PMS5003;67697;50.750;-3.270;2023-04-03T12:36:22;27;26;
78408;PMS5003;67697;50.750;-3.270;2023-04-03T12:38:49;23;22;
78408;PMS5003;67697;50.750;-3.270;2023-04-03T12:41:14;25;24;
78408;PMS5003;67697;50.750;-3.270;2023-04-03T12:43:39;23;22;
78408;PMS5003;67697;50.750;-3.270;2023-04-03T12:46:02;22;21;
78408;PMS5003;67697;50.750;-3.270;2023-04-03T12:48:27;23;22;
78408;PMS5003;67697;50.750;-3.270;2023-04-03T12:50:51;24;21;
78408;PMS5003;67697;50.750;-3.270;2023-04-03T12:53:16;23;23;
78408;PMS5003;67697;50.750;-3.270;2023-04-03T12:55:41;23;20;
78408;PMS5003;67697;50.750;-3.270;2023-04-03T12:58:13;26;25;
78408;PMS5003;67697;50.750;-3.270;2023-04-03T13:00:33;30;30;
78408;PMS5003;67697;50.750;-3.270;2023-04-03T13:02:57;22;19;
78408;PMS5003;67697;50.750;-3.270;2023-04-03T13:05:22;22;22;
78408;PMS5003;67697;50.750;-3.270;2023-04-03T13:07:48;28;24;
78408;PMS5003;67697;50.750;-3.270;2023-04-03T13:10:14;29;25;
78408;PMS5003;67697;50.750;-3.270;2023-04-03T13:17:31;24;24;
78408;PMS5003;67697;50.750;-3.270;2023-04-03T13:19:56;21;20;
78408;PMS5003;67697;50.750;-3.270;2023-04-03T13:22:25;29;24;
78408;PMS5003;67697;50.750;-3.270;2023-04-03T13:24:46;23;20;
78408;PMS5003;67697;50.750;-3.270;2023-04-03T13:27:12;20;18;
78408;PMS5003;67697;50.750;-3.270;2023-04-03T13:29:37;23;20;
78408;PMS5003;67697;50.750;-3.270;2023-04-03T13:32:03;20;19;
78408;PMS5003;67697;50.750;-3.270;2023-04-03T13:34:29;20;19;
78408;PMS5003;67697;50.750;-3.270;2023-04-03T13:36:55;25;25;
78408;PMS5003;67697;50.750;-3.270;2023-04-03T13:39:21;21;21;
78408;PMS5003;67697;50.750;-3.270;2023-04-03T13:41:46;18;18;
78408;PMS5003;67697;50.750;-3.270;2023-04-03T13:44:17;19;18;
78408;PMS5003;67697;50.750;-3.270;2023-04-03T13:46:36;17;16;
78408;PMS5003;67697;50.750;-3.270;2023-04-03T13:49:09;17;16;
78408;PMS5003;67697;50.750;-3.270;2023-04-03T13:51:28;18;18;
78408;PMS5003;67697;50.750;-3.270;2023-04-03T13:53:54;19;19;
78408;PMS5003;67697;50.750;-3.270;2023-04-03T13:56:22;19;16;
78408;PMS5003;67697;50.750;-3.270;2023-04-03T14:01:14;18;18;
78408;PMS5003;67697;50.750;-3.270;2023-04-03T14:03:39;12;12;
78408;PMS5003;67697;50.750;-3.270;2023-04-03T14:06:01;13;13;
78408;PMS5003;67697;50.750;-3.270;2023-04-03T14:08:26;12;12;
78408;PMS5003;67697;50.750;-3.270;2023-04-03T14:10:52;16;13;
78408;PMS5003;67697;50.750;-3.270;2023-04-03T14:13:18;16;13;
78408;PMS5003;67697;50.750;-3.270;2023-04-03T14:15:44;19;16;
78408;PMS5003;67697;50.750;-3.270;2023-04-03T14:18:10;15;15;
78408;PMS5003;67697;50.750;-3.270;2023-04-03T14:20:34;20;17;
78408;PMS5003;67697;50.750;-3.270;2023-04-03T14:23:00;18;18;
78408;PMS5003;67697;50.750;-3.270;2023-04-03T14:25:25;17;16;
78408;PMS5003;67697;50.750;-3.270;2023-04-03T14:27:51;18;16;
78408;PMS5003;67697;50.750;-3.270;2023-04-03T14:30:17;15;15;
78408;PMS5003;67697;50.750;-3.270;2023-04-03T14:32:41;11;11;
78408;PMS5003;67697;50.750;-3.270;2023-04-03T14:35:07;11;10;
78408;PMS5003;67697;50.750;-3.270;2023-04-03T14:37:33;13;13;
78408;PMS5003;67697;50.750;-3.270;2023-04-03T14:39:59;15;15;
78408;PMS5003;67697;50.750;-3.270;2023-04-03T14:42:25;15;13;
78408;PMS5003;67697;50.750;-3.270;2023-04-03T14:44:50;9;9;
78408;PMS5003;67697;50.750;-3.270;2023-04-03T14:47:16;11;11;
78408;PMS5003;67697;50.750;-3.270;2023-04-03T14:49:41;17;15;
78408;PMS5003;67697;50.750;-3.270;2023-04-03T14:52:09;11;11;
78408;PMS5003;67697;50.750;-3.270;2023-04-03T14:54:32;12;11;
78408;PMS5003;67697;50.750;-3.270;2023-04-03T14:56:59;16;16;
78408;PMS5003;67697;50.750;-3.270;2023-04-03T14:59:24;12;12;
78408;PMS5003;67697;50.750;-3.270;2023-04-03T15:01:49;11;11;
78408;PMS5003;67697;50.750;-3.270;2023-04-03T15:04:15;12;12;
78408;PMS5003;67697;50.750;-3.270;2023-04-03T15:06:40;12;10;
78408;PMS5003;67697;50.750;-3.270;2023-04-03T15:09:08;18;12;
78408;PMS5003;67697;50.750;-3.270;2023-04-03T15:11:31;16;15;
78408;PMS5003;67697;50.750;-3.270;2023-04-03T15:13:56;12;11;
78408;PMS5003;67697;50.750;-3.270;2023-04-03T15:16:22;12;11;
78408;PMS5003;67697;50.750;-3.270;2023-04-03T15:18:48;12;12;
78408;PMS5003;67697;50.750;-3.270;2023-04-03T15:21:13;12;10;
78408;PMS5003;67697;50.750;-3.270;2023-04-03T15:23:39;13;11;
78408;PMS5003;67697;50.750;-3.270;2023-04-03T15:26:05;13;11;
78408;PMS5003;67697;50.750;-3.270;2023-04-03T15:28:31;17;12;
78408;PMS5003;67697;50.750;-3.270;2023-04-03T15:30:55;9;9;
78408;PMS5003;67697;50.750;-3.270;2023-04-03T15:33:21;12;11;
78408;PMS5003;67697;50.750;-3.270;2023-04-03T15:35:47;16;11;
78408;PMS5003;67697;50.750;-3.270;2023-04-03T15:38:12;16;13;
78408;PMS5003;67697;50.750;-3.270;2023-04-03T15:40:37;15;12;
78408;PMS5003;67697;50.750;-3.270;2023-04-03T15:43:04;12;11;
78408;PMS5003;67697;50.750;-3.270;2023-04-03T15:45:28;12;12;
78408;PMS5003;67697;50.750;-3.270;2023-04-03T15:47:54;12;12;
78408;PMS5003;67697;50.750;-3.270;2023-04-03T15:50:19;13;12;
78408;PMS5003;67697;50.750;-3.270;2023-04-03T15:52:45;16;15;
78408;PMS5003;67697;50.750;-3.270;2023-04-03T15:55:11;15;13;
78408;PMS5003;67697;50.750;-3.270;2023-04-03T15:57:36;18;18;
78408;PMS5003;67697;50.750;-3.270;2023-04-03T16:00:02;15;13;
78408;PMS5003;67697;50.750;-3.270;2023-04-03T16:02:27;16;16;
78408;PMS5003;67697;50.750;-3.270;2023-04-03T16:04:53;16;15;
78408;PMS5003;67697;50.750;-3.270;2023-04-03T16:07:18;15;15;
78408;PMS5003;67697;50.750;-3.270;2023-04-03T16:09:44;13;11;
78408;PMS5003;67697;50.750;-3.270;2023-04-03T16:12:09;16;13;
78408;PMS5003;67697;50.750;-3.270;2023-04-03T16:14:35;17;16;
78408;PMS5003;67697;50.750;-3.270;2023-04-03T16:17:00;12;12;
78408;PMS5003;67697;50.750;-3.270;2023-04-03T16:19:26;16;16;
78408;PMS5003;67697;50.750;-3.270;2023-04-03T16:21:52;15;12;
78408;PMS5003;67697;50.750;-3.270;2023-04-03T16:24:17;17;16;
78408;PMS5003;67697;50.750;-3.270;2023-04-03T16:26:43;15;15;
78408;PMS5003;67697;50.750;-3.270;2023-04-03T16:29:08;16;16;
78408;PMS5003;67697;50.750;-3.270;2023-04-03T16:31:34;17;15;
78408;PMS5003;67697;50.750;-3.270;2023-04-03T16:34:00;16;15;
78408;PMS5003;67697;50.750;-3.270;2023-04-03T16:36:25;16;14;
78408;PMS5003;67697;50.750;-3.270;2023-04-03T16:38:51;17;15;